createdAt,value
2024-05-09T00:03:31.561Z,98405.00
2024-05-09T00:08:37.450Z,98407.38
2024-05-09T00:13:43.117Z,98403.78
2024-05-09T00:18:51.577Z,98404.25
2024-05-09T00:23:57.494Z,98399.50
2024-05-09T00:29:03.036Z,98402.97
2024-05-09T00:34:11.613Z,98394.53
2024-05-09T00:39:17.631Z,98389.78
2024-05-09T00:44:23.355Z,98398.94
2024-05-09T00:49:32.150Z,98388.34
2024-05-09T00:54:37.888Z,98395.94
2024-05-09T00:59:44.070Z,98394.81
2024-05-09T01:04:53.529Z,98392.88
2024-05-09T01:09:59.341Z,98393.03
2024-05-09T01:15:04.849Z,98389.31
2024-05-09T01:20:20.104Z,98394.81
2024-05-09T01:25:35.653Z,98398.28
2024-05-09T01:30:41.479Z,98395.38
2024-05-09T01:35:47.135Z,98395.09
2024-05-09T01:40:55.526Z,98387.44
2024-05-09T01:46:01.189Z,98389.56
2024-05-09T01:51:06.937Z,98387.03
2024-05-09T01:56:15.771Z,98396.75
2024-05-09T02:01:21.465Z,98389.41
2024-05-09T02:06:27.127Z,98387.31
2024-05-09T02:11:36.089Z,98390.91
2024-05-09T02:16:41.717Z,98393.97
2024-05-09T02:21:47.236Z,98386.03
2024-05-09T02:26:55.575Z,98384.88
2024-05-09T02:32:01.370Z,98386.91
2024-05-09T02:37:07.214Z,98385.03
2024-05-09T02:42:15.452Z,98374.41
2024-05-09T02:47:21.215Z,98378.59
2024-05-09T02:52:27.006Z,98376.75
2024-05-09T02:57:35.293Z,98371.47
2024-05-09T03:02:40.977Z,98370.84
2024-05-09T03:07:46.760Z,98375.63
2024-05-09T03:12:55.051Z,98383.66
2024-05-09T03:18:01.346Z,98381.41
2024-05-09T03:23:08.470Z,98385.84
2024-05-09T03:28:17.682Z,98382.34
2024-05-09T03:33:23.842Z,98373.47
2024-05-09T03:38:29.642Z,98377.22
2024-05-09T03:43:37.889Z,98370.97
2024-05-09T03:48:43.470Z,98377.09
2024-05-09T03:53:49.194Z,98375.19
2024-05-09T03:58:58.297Z,98372.22
2024-05-09T04:04:04.009Z,98377.00
2024-05-09T04:09:09.671Z,98383.16
2024-05-09T04:14:17.985Z,98386.44
2024-05-09T04:19:23.686Z,98380.00
2024-05-09T04:24:29.431Z,98386.31
2024-05-09T04:29:38.081Z,98395.38
2024-05-09T04:34:43.879Z,98399.22
2024-05-09T04:39:49.569Z,98403.06
2024-05-09T04:44:58.797Z,98400.16
2024-05-09T04:50:05.545Z,98402.63
2024-05-09T04:55:11.368Z,98396.63
2024-05-09T05:00:28.461Z,98396.59
2024-05-09T05:05:42.074Z,98396.75
2024-05-09T05:10:48.884Z,98403.88
2024-05-09T05:15:58.624Z,98404.81
2024-05-09T05:21:04.805Z,98394.66
2024-05-09T05:26:10.509Z,98399.25
2024-05-09T05:31:18.972Z,98402.25
2024-05-09T05:36:24.655Z,98396.84
2024-05-09T05:41:30.351Z,98393.97
2024-05-09T05:46:38.569Z,98397.72
2024-05-09T05:51:44.154Z,98403.94
2024-05-09T05:56:49.829Z,98391.28
2024-05-09T06:01:58.267Z,98393.75
2024-05-09T06:07:04.215Z,98396.66
2024-05-09T06:12:10.483Z,98395.78
2024-05-09T06:17:19.183Z,98397.88
2024-05-09T06:22:25.157Z,98402.16
2024-05-09T06:27:30.767Z,98403.72
2024-05-09T06:32:39.167Z,98388.91
2024-05-09T06:37:45.158Z,98391.72
2024-05-09T06:42:50.849Z,98389.22
2024-05-09T06:47:59.249Z,98385.81
2024-05-09T06:53:05.312Z,98372.38
2024-05-09T06:58:12.053Z,98372.34
2024-05-09T07:03:20.630Z,98361.34
2024-05-09T07:08:26.461Z,98379.88
2024-05-09T07:13:32.586Z,98375.47
2024-05-09T07:18:41.202Z,98366.44
2024-05-09T07:23:47.532Z,98374.38
2024-05-09T07:28:53.485Z,98360.69
2024-05-09T07:34:02.340Z,98366.16
2024-05-09T07:39:08.463Z,98356.00
2024-05-09T07:44:14.290Z,98358.22
2024-05-09T07:54:31.735Z,98353.19
2024-05-09T07:59:38.012Z,98351.84
2024-05-09T08:04:47.102Z,98346.97
2024-05-09T08:09:52.874Z,98347.97
2024-05-09T08:14:58.451Z,98346.00
2024-05-09T08:20:07.645Z,98346.41
2024-05-09T08:25:14.566Z,98341.09
2024-05-09T08:30:25.409Z,98346.16
2024-05-09T08:35:41.780Z,98338.88
2024-05-09T08:40:47.654Z,98324.78
2024-05-09T08:45:54.210Z,98332.47
2024-05-09T08:51:02.609Z,98332.16
2024-05-09T08:56:11.002Z,98328.75
2024-05-09T09:01:18.270Z,98337.75
2024-05-09T09:06:27.492Z,98333.78
2024-05-09T09:11:33.785Z,98330.72
2024-05-09T09:16:40.290Z,98325.56
2024-05-09T09:21:48.726Z,98323.59
2024-05-09T09:26:54.498Z,98322.06
2024-05-09T09:32:04.078Z,98327.50
2024-05-09T09:37:14.072Z,98324.69
2024-05-09T09:42:20.603Z,98321.22
2024-05-09T09:47:26.909Z,98322.19
2024-05-09T09:52:35.543Z,98309.78
2024-05-09T09:57:42.739Z,98309.03
2024-05-09T10:02:48.365Z,98314.78
2024-05-09T10:07:57.035Z,98311.25
2024-05-09T10:13:03.048Z,98299.38
2024-05-09T10:18:09.593Z,98301.75
2024-05-09T10:23:32.445Z,98307.22
2024-05-09T10:28:39.466Z,98294.53
2024-05-09T10:33:50.860Z,98289.47
2024-05-09T10:39:00.375Z,98291.44
2024-05-09T10:44:06.137Z,98288.13
2024-05-09T10:49:12.538Z,98287.63
2024-05-09T10:54:21.044Z,98294.69
2024-05-09T10:59:27.071Z,98276.94
2024-05-09T11:04:33.398Z,98274.84
2024-05-09T11:09:42.720Z,98266.19
2024-05-09T11:14:56.526Z,98273.63
2024-05-09T11:20:08.123Z,98263.63
2024-05-09T11:25:19.355Z,98262.53
2024-05-09T11:30:31.587Z,98262.72
2024-05-09T11:35:37.812Z,98255.41
2024-05-09T11:40:46.285Z,98254.50
2024-05-09T11:45:52.228Z,98243.28
2024-05-09T11:50:58.150Z,98244.22
2024-05-09T11:56:06.669Z,98232.28
2024-05-09T12:01:12.534Z,98249.09
2024-05-09T12:06:18.520Z,98236.97
2024-05-09T12:11:27.351Z,98233.84
2024-05-09T12:16:33.382Z,98218.00
2024-05-09T12:21:38.979Z,98224.03
2024-05-09T12:26:47.411Z,98227.78
2024-05-09T12:31:53.547Z,98216.09
2024-05-09T12:36:59.322Z,98198.06
2024-05-09T12:42:09.750Z,98208.94
2024-05-09T12:47:16.934Z,98208.13
2024-05-09T12:52:22.822Z,98193.81
2024-05-09T12:57:31.324Z,98196.88
2024-05-09T13:02:37.093Z,98188.06
2024-05-09T13:07:43.490Z,98177.63
2024-05-09T13:12:52.143Z,98170.22
2024-05-09T13:18:00.455Z,98168.16
2024-05-09T13:23:09.885Z,98154.81
2024-05-09T13:28:18.286Z,98159.78
2024-05-09T13:33:24.108Z,98154.38
2024-05-09T13:38:29.917Z,98162.03
2024-05-09T13:43:39.004Z,98158.53
2024-05-09T13:48:44.785Z,98147.59
2024-05-09T13:53:50.363Z,98162.06
2024-05-09T13:58:58.486Z,98135.84
2024-05-09T14:04:05.282Z,98145.38
2024-05-09T14:09:11.893Z,98145.00
2024-05-09T14:14:20.205Z,98135.38
2024-05-09T14:19:25.927Z,98120.22
2024-05-09T14:24:31.749Z,98118.38
2024-05-09T14:29:40.086Z,98108.94
2024-05-09T14:34:45.846Z,98105.41
2024-05-09T14:39:51.548Z,98101.19
2024-05-09T14:45:02.132Z,98099.78
2024-05-09T14:50:13.856Z,98086.31
2024-05-09T14:55:24.883Z,98092.88
2024-05-09T15:00:35.802Z,98080.78
2024-05-09T15:05:43.334Z,98065.84
2024-05-09T15:10:49.960Z,98070.78
2024-05-09T15:15:58.779Z,98062.84
2024-05-09T15:21:04.398Z,98060.94
2024-05-09T15:26:10.354Z,98057.88
2024-05-09T15:31:18.915Z,98057.19
2024-05-09T15:36:24.542Z,98060.91
2024-05-09T15:41:30.220Z,98057.19
2024-05-09T15:46:38.575Z,98052.03
2024-05-09T15:51:44.954Z,98046.59
2024-05-09T15:56:51.376Z,98042.69
2024-05-09T16:01:59.963Z,98051.38
2024-05-09T16:07:06.009Z,98048.44
2024-05-09T16:12:11.952Z,98040.16
2024-05-09T16:17:21.186Z,98050.81
2024-05-09T16:22:27.264Z,98048.91
2024-05-09T16:27:33.225Z,98049.50
2024-05-09T16:32:44.284Z,98043.28
2024-05-09T16:37:50.516Z,98047.97
2024-05-09T16:42:56.407Z,98045.63
2024-05-09T16:48:05.376Z,98045.00
2024-05-09T16:53:11.299Z,98042.94
2024-05-09T16:58:17.338Z,98041.09
2024-05-09T17:03:26.546Z,98041.59
2024-05-09T17:08:32.463Z,98039.09
2024-05-09T17:13:39.578Z,98031.53
2024-05-09T17:18:48.915Z,98040.34
2024-05-09T17:23:55.798Z,98048.91
2024-05-09T17:29:01.732Z,98038.53
2024-05-09T17:34:10.191Z,98037.97
2024-05-09T17:39:16.382Z,98032.28
2024-05-09T17:44:21.920Z,98027.00
2024-05-09T17:49:30.354Z,98033.53
2024-05-09T17:54:36.458Z,98037.47
2024-05-09T17:59:42.148Z,98043.47
2024-05-09T18:04:50.617Z,98037.44
2024-05-09T18:09:56.299Z,98046.44
2024-05-09T18:15:02.573Z,98043.41
2024-05-09T18:20:19.690Z,98047.63
2024-05-09T18:25:35.829Z,98052.25
2024-05-09T18:30:41.937Z,98051.75
2024-05-09T18:35:50.171Z,98051.31
2024-05-09T18:40:56.021Z,98052.28
2024-05-09T18:46:01.760Z,98055.56
2024-05-09T18:51:10.283Z,98058.81
2024-05-09T18:56:16.210Z,98066.00
2024-05-09T19:01:22.148Z,98071.84
2024-05-09T19:06:30.609Z,98071.91
2024-05-09T19:11:39.918Z,98076.31
2024-05-09T19:16:47.054Z,98088.53
2024-05-09T19:21:55.221Z,98087.72
2024-05-09T19:27:02.050Z,98097.13
2024-05-09T19:32:08.454Z,98103.16
2024-05-09T19:37:17.024Z,98093.31
2024-05-09T19:42:22.830Z,98107.53
2024-05-09T19:47:30.050Z,98099.84
2024-05-09T19:52:38.625Z,98109.47
2024-05-09T19:57:44.661Z,98119.06
2024-05-09T20:02:50.631Z,98103.44
2024-05-09T20:07:59.138Z,98103.91
2024-05-09T20:13:06.040Z,98115.16
2024-05-09T20:18:12.869Z,98104.59
2024-05-09T20:23:21.319Z,98113.06
2024-05-09T20:28:27.515Z,98118.06
2024-05-09T20:33:33.526Z,98114.66
2024-05-09T20:38:41.932Z,98117.31
2024-05-09T20:43:47.799Z,98120.41
2024-05-09T20:48:53.674Z,98119.34
2024-05-09T20:54:02.362Z,98122.53
2024-05-09T20:59:08.128Z,98123.69
2024-05-09T21:04:13.982Z,98121.25
2024-05-09T21:09:25.707Z,98127.16
2024-05-09T21:14:31.523Z,98122.75
2024-05-09T21:19:37.460Z,98126.75
2024-05-09T21:24:45.849Z,98129.50
2024-05-09T21:29:51.707Z,98121.97
2024-05-09T21:34:57.371Z,98128.72
2024-05-09T21:40:11.281Z,98132.59
2024-05-09T21:45:19.472Z,98131.72
2024-05-09T21:50:32.303Z,98133.91
2024-05-09T21:55:47.791Z,98136.28
2024-05-09T22:00:53.557Z,98134.94
2024-05-09T22:05:59.649Z,98141.75
2024-05-09T22:11:08.394Z,98142.78
2024-05-09T22:16:14.088Z,98147.69
2024-05-09T22:21:19.894Z,98154.88
2024-05-09T22:26:28.241Z,98144.75
2024-05-09T22:31:34.020Z,98150.44
2024-05-09T22:36:39.770Z,98153.56
2024-05-09T22:41:48.386Z,98149.69
2024-05-09T22:46:54.086Z,98156.34
2024-05-09T22:51:59.761Z,98154.84
2024-05-09T22:57:08.535Z,98155.50
2024-05-09T23:02:14.678Z,98151.22
2024-05-09T23:07:20.653Z,98154.97
2024-05-09T23:12:28.927Z,98148.44
2024-05-09T23:17:34.766Z,98137.50
2024-05-09T23:22:40.544Z,98148.72
2024-05-09T23:27:49.006Z,98133.47
2024-05-09T23:32:54.794Z,98126.72
2024-05-09T23:38:00.583Z,98123.06
2024-05-09T23:43:09.316Z,98134.72
2024-05-09T23:48:15.255Z,98124.09
2024-05-09T23:53:20.980Z,98124.88
2024-05-09T23:58:29.502Z,98129.00
